Time;durP1;ratioP1;P1;durP2;ratioP2;P2;SDS_P1;SDS_P2;PMS_P1;PMS_P2;Temp;Humidity;BMP_temperature;BMP_pressure;BME280_temperature;BME280_humidity;BME280_pressure;Samples;Min_cycle;Max_cycle;Signal;HPM_P1;HPM_P2
2022/01/28 00:01:01;;;;;;;19.50;10.20;;;1.60;99.90;;;;;;5016020;28;20430;-60
2022/01/28 00:03:27;;;;;;;21.30;10.67;;;1.60;99.90;;;;;;5002327;28;20469;-59
2022/01/28 00:05:53;;;;;;;23.33;10.23;;;1.60;99.90;;;;;;4999236;28;20426;-60
2022/01/28 00:08:19;;;;;;;27.57;11.30;;;1.60;99.90;;;;;;4995541;28;21038;-60
2022/01/28 00:10:45;;;;;;;21.30;12.10;;;1.60;99.90;;;;;;5008320;28;20181;-60
2022/01/28 00:13:26;;;;;;;22.53;10.30;;;1.60;99.90;;;;;;4996822;28;20176;-60
2022/01/28 00:37:09;;;;;;;;;;;;;;;;;;;;;
2022/01/28 00:39:26;;;;;;;15.40;8.10;;;1.80;99.90;;;;;;5006183;28;20974;-60
2022/01/28 00:41:52;;;;;;;11.70;7.10;;;1.80;99.90;;;;;;4996695;28;20439;-60
2022/01/28 00:44:18;;;;;;;16.13;6.90;;;1.80;99.90;;;;;;5000470;28;20191;-59
2022/01/28 00:46:44;;;;;;;11.77;5.90;;;1.80;99.90;;;;;;4992319;28;20230;-59
2022/01/28 00:49:10;;;;;;;10.33;5.73;;;1.90;99.90;;;;;;5001856;28;20427;-59
2022/01/28 00:51:35;;;;;;;6.07;3.20;;;1.80;99.90;;;;;;5008080;28;20184;-59
2022/01/28 00:54:01;;;;;;;8.27;4.77;;;1.90;99.90;;;;;;5001448;28;20427;-59
2022/01/28 00:56:27;;;;;;;11.23;4.97;;;1.90;99.90;;;;;;4996504;28;20991;-59
2022/01/28 00:58:52;;;;;;;8.10;4.37;;;2.00;99.90;;;;;;5004468;28;20189;-60
2022/01/28 01:01:18;;;;;;;3.63;2.83;;;2.00;99.90;;;;;;4998738;28;20175;-59
2022/01/28 01:03:44;;;;;;;3.13;2.80;;;2.00;99.90;;;;;;5004150;28;20194;-59
2022/01/28 01:06:09;;;;;;;3.50;2.90;;;2.00;99.90;;;;;;5010072;28;20633;-60
2022/01/28 01:08:36;;;;;;;4.27;3.17;;;2.10;99.90;;;;;;4996156;28;20208;-59
2022/01/28 01:11:02;;;;;;;3.20;2.90;;;2.10;99.90;;;;;;5003156;28;20279;-59
2022/01/28 01:13:28;;;;;;;5.23;2.93;;;2.20;99.90;;;;;;5004917;28;20435;-59
2022/01/28 01:15:58;;;;;;;4.07;3.27;;;2.20;99.90;;;;;;5012447;28;20896;-60
2022/01/28 01:18:35;;;;;;;4.77;3.10;;;2.20;99.90;;;;;;5002643;28;20455;-59
2022/01/28 01:21:06;;;;;;;4.93;3.00;;;2.30;99.90;;;;;;5005594;28;20458;-59
2022/01/28 01:23:35;;;;;;;5.17;3.50;;;2.20;99.90;;;;;;5010176;28;20515;-59
2022/01/28 01:28:31;;;;;;;6.23;3.27;;;2.30;99.90;;;;;;5005340;28;20510;-60
2022/01/28 01:30:59;;;;;;;4.30;3.57;;;2.20;99.90;;;;;;5004678;28;20477;-60
2022/01/28 01:33:25;;;;;;;3.53;3.23;;;2.20;99.90;;;;;;5007955;28;20978;-60
2022/01/28 01:35:51;;;;;;;4.37;3.60;;;2.20;99.90;;;;;;5009748;28;20466;-60
2022/01/28 01:38:17;;;;;;;4.97;3.80;;;2.20;99.90;;;;;;5007810;28;20517;-60
2022/01/28 01:43:41;;;;;;;3.47;3.00;;;2.20;99.90;;;;;;5002157;28;20181;-60
2022/01/28 01:46:10;;;;;;;;;;;;;;;;;;;;;
2022/01/28 01:53:52;;;;;;;3.90;3.03;;;2.20;99.90;;;;;;5005817;28;20494;-59
2022/01/28 01:56:19;;;;;;;5.60;3.90;;;2.10;99.90;;;;;;4998839;28;20585;-59
2022/01/28 01:58:46;;;;;;;3.97;3.43;;;2.10;99.90;;;;;;4996882;28;20701;-60
2022/01/28 02:01:11;;;;;;;5.00;3.87;;;2.10;99.90;;;;;;5013352;28;20480;-60
2022/01/28 02:03:37;;;;;;;5.10;3.83;;;2.10;99.90;;;;;;5011664;28;20940;-58
2022/01/28 02:06:03;;;;;;;4.73;3.80;;;2.10;99.90;;;;;;5007300;28;20262;-60
2022/01/28 02:08:32;;;;;;;5.57;4.30;;;2.10;99.90;;;;;;5002706;28;20453;-61
2022/01/28 02:10:59;;;;;;;4.40;3.83;;;2.10;99.90;;;;;;5008716;28;20613;-60
2022/01/28 02:13:34;;;;;;;4.67;4.10;;;2.00;99.90;;;;;;5020750;28;20454;-60
2022/01/28 02:16:01;;;;;;;5.50;4.10;;;2.00;99.90;;;;;;4992587;28;20470;-60
2022/01/28 02:18:27;;;;;;;4.20;3.67;;;2.10;99.90;;;;;;5006490;28;20867;-61
2022/01/28 02:20:58;;;;;;;8.60;4.50;;;2.00;99.90;;;;;;5005434;28;20435;-60
2022/01/28 02:23:24;;;;;;;7.80;4.67;;;2.10;99.90;;;;;;4992592;28;20851;-61
2022/01/28 02:25:50;;;;;;;4.40;4.00;;;2.10;99.90;;;;;;4992880;28;20412;-60
2022/01/28 02:28:20;;;;;;;4.80;4.00;;;2.10;99.90;;;;;;4995803;28;20200;-60
2022/01/28 02:30:45;;;;;;;6.90;3.93;;;2.10;99.90;;;;;;4991847;28;20926;-60
2022/01/28 02:33:18;;;;;;;5.80;4.27;;;2.10;99.90;;;;;;4999708;28;20437;-59
2022/01/28 02:35:45;;;;;;;7.00;4.00;;;2.10;99.90;;;;;;5009270;28;20210;-60
2022/01/28 02:38:12;;;;;;;6.60;4.80;;;2.20;99.90;;;;;;5012227;28;20469;-60
2022/01/28 02:40:39;;;;;;;7.30;4.40;;;2.20;99.90;;;;;;4995826;28;20895;-60
2022/01/28 02:43:18;;;;;;;5.80;4.70;;;2.20;99.90;;;;;;4993971;28;20487;-60
2022/01/28 02:45:46;;;;;;;7.07;4.43;;;2.20;99.90;;;;;;5004478;28;20431;-61
2022/01/28 02:48:21;;;;;;;6.50;4.70;;;2.20;99.90;;;;;;5011184;28;20447;-60
2022/01/28 02:51:12;;;;;;;8.27;5.27;;;2.20;99.90;;;;;;5005476;28;20440;-60
2022/01/28 02:53:45;;;;;;;7.27;4.97;;;2.20;99.90;;;;;;5009309;28;20486;-60
2022/01/28 02:56:24;;;;;;;7.27;4.80;;;2.20;99.90;;;;;;4992056;28;20458;-61
2022/01/28 02:58:50;;;;;;;8.13;4.70;;;2.20;99.90;;;;;;5003086;28;20443;-60
2022/01/28 03:01:17;;;;;;;9.50;4.83;;;2.20;99.90;;;;;;4996113;28;20443;-59
2022/01/28 03:03:44;;;;;;;6.10;4.50;;;2.20;99.90;;;;;;5005534;28;20422;-60
2022/01/28 03:06:12;;;;;;;5.97;4.20;;;2.20;99.90;;;;;;5000130;28;20440;-60
2022/01/28 03:08:42;;;;;;;5.93;4.57;;;2.20;99.90;;;;;;4996009;28;20475;-60
2022/01/28 03:11:30;;;;;;;5.30;3.70;;;2.20;99.90;;;;;;4996773;28;20497;-60
2022/01/28 03:16:58;;;;;;;6.37;4.90;;;2.20;99.90;;;;;;5008571;28;20539;-60
2022/01/28 03:19:28;;;;;;;8.70;4.90;;;2.30;99.90;;;;;;4991540;28;20923;-60
2022/01/28 03:21:55;;;;;;;7.47;4.50;;;2.20;99.90;;;;;;4992182;28;20452;-60
2022/01/28 03:24:22;;;;;;;6.73;4.73;;;2.20;99.90;;;;;;5005637;28;20781;-60
2022/01/28 03:26:51;;;;;;;5.60;4.57;;;2.20;99.90;;;;;;5000457;28;20458;-60
2022/01/28 03:29:16;;;;;;;6.43;4.80;;;2.20;99.90;;;;;;5003747;28;20431;-60
2022/01/28 03:31:42;;;;;;;8.13;4.90;;;2.20;99.90;;;;;;5010611;28;21084;-60
2022/01/28 03:34:08;;;;;;;5.60;4.90;;;2.20;99.90;;;;;;5003994;28;20452;-60
2022/01/28 03:36:34;;;;;;;9.20;4.73;;;2.20;99.90;;;;;;5003452;28;20206;-60
2022/01/28 03:38:59;;;;;;;5.70;4.43;;;2.20;99.90;;;;;;4992752;28;20175;-60
2022/01/28 03:41:25;;;;;;;6.83;4.67;;;2.20;99.90;;;;;;5007588;28;20418;-60
2022/01/28 03:43:58;;;;;;;7.60;4.80;;;2.20;99.90;;;;;;5001278;28;20219;-60
2022/01/28 03:46:25;;;;;;;6.03;4.20;;;2.20;99.90;;;;;;5006213;28;20180;-60
2022/01/28 03:48:52;;;;;;;8.00;4.90;;;2.20;99.90;;;;;;5009687;28;20854;-61
2022/01/28 03:51:18;;;;;;;5.50;4.17;;;2.20;99.90;;;;;;5004401;28;20430;-60
2022/01/28 03:53:44;;;;;;;6.60;4.27;;;2.20;99.90;;;;;;4997576;28;20791;-60
2022/01/28 03:56:09;;;;;;;6.30;4.40;;;2.20;99.90;;;;;;5004896;28;20254;-60
2022/01/28 03:58:35;;;;;;;5.27;4.47;;;2.20;99.90;;;;;;4992507;28;20200;-59
2022/01/28 04:01:03;;;;;;;7.07;4.70;;;2.20;99.90;;;;;;5003971;28;20396;-60
2022/01/28 04:13:53;;;;;;;13.43;6.10;;;2.20;99.90;;;;;;5010027;28;20420;-60
2022/01/28 04:18:45;;;;;;;8.40;4.93;;;2.20;99.90;;;;;;4996615;28;20501;-60
2022/01/28 04:21:11;;;;;;;7.53;5.90;;;2.20;99.90;;;;;;5002444;28;20255;-60
2022/01/28 04:23:36;;;;;;;11.60;6.30;;;2.20;99.90;;;;;;5006720;28;20180;-61
2022/01/28 04:26:02;;;;;;;13.07;6.87;;;2.20;99.90;;;;;;4998903;28;20453;-60
2022/01/28 04:28:28;;;;;;;12.27;8.10;;;2.20;99.90;;;;;;5008597;28;20200;-60
2022/01/28 04:30:53;;;;;;;8.10;5.60;;;2.20;99.90;;;;;;4998438;28;20177;-60
2022/01/28 04:33:19;;;;;;;10.80;5.83;;;2.20;99.90;;;;;;5005798;28;20205;-60
2022/01/28 04:35:48;;;;;;;10.17;5.60;;;2.20;99.90;;;;;;5002670;28;20200;-59
2022/01/28 04:40:51;;;;;;;13.03;5.53;;;2.20;99.90;;;;;;5007071;28;20433;-60
2022/01/28 04:43:24;;;;;;;10.87;6.00;;;2.20;99.90;;;;;;5002967;28;20176;-60
2022/01/28 04:45:59;;;;;;;8.40;4.87;;;2.20;99.90;;;;;;4999743;28;20434;-60
2022/01/28 04:48:46;;;;;;;9.50;5.67;;;2.20;99.90;;;;;;5006492;28;20503;-60
2022/01/28 04:51:28;;;;;;;12.77;5.87;;;2.20;99.90;;;;;;4995284;28;20504;-59
2022/01/28 05:26:56;;;;;;;8.10;5.17;;;2.20;99.90;;;;;;5005842;28;20452;-58
2022/01/28 05:29:22;;;;;;;9.13;6.27;;;2.20;99.90;;;;;;4999446;28;20440;-60
2022/01/28 05:31:48;;;;;;;9.70;6.07;;;2.20;99.90;;;;;;4997711;28;20447;-60
2022/01/28 05:34:15;;;;;;;7.33;4.73;;;2.20;99.90;;;;;;5001014;28;20972;-60
2022/01/28 05:36:41;;;;;;;9.97;6.37;;;2.20;99.90;;;;;;4999033;28;20201;-59
2022/01/28 05:39:06;;;;;;;12.60;7.37;;;2.30;99.90;;;;;;4996233;28;20448;-59
2022/01/28 05:41:32;;;;;;;9.43;5.63;;;2.20;99.90;;;;;;4999371;28;20177;-63
2022/01/28 05:44:00;;;;;;;15.50;7.00;;;2.20;99.90;;;;;;4997928;28;20208;-60
2022/01/28 05:46:28;;;;;;;9.30;5.47;;;2.30;99.90;;;;;;4995341;28;20188;-59
2022/01/28 05:48:54;;;;;;;12.40;6.17;;;2.20;99.90;;;;;;4996923;28;20466;-59
2022/01/28 05:51:19;;;;;;;9.43;5.10;;;2.20;99.90;;;;;;5000587;28;20524;-60
2022/01/28 05:53:45;;;;;;;9.97;6.27;;;2.20;99.90;;;;;;5001303;28;20189;-60
2022/01/28 05:56:10;;;;;;;11.13;6.17;;;2.20;99.90;;;;;;5004788;28;20202;-59
2022/01/28 05:58:36;;;;;;;12.07;6.60;;;2.20;99.90;;;;;;5004353;28;20686;-59
2022/01/28 06:01:02;;;;;;;13.00;6.27;;;2.20;99.90;;;;;;5007954;28;20167;-58
2022/01/28 06:03:28;;;;;;;10.20;6.40;;;2.30;99.90;;;;;;5003964;28;20173;-58
2022/01/28 06:05:53;;;;;;;15.40;6.40;;;2.30;99.90;;;;;;5004130;28;20311;-59
2022/01/28 06:08:19;;;;;;;12.47;6.80;;;2.20;99.90;;;;;;5003266;28;20226;-60
2022/01/28 06:10:44;;;;;;;9.20;6.57;;;2.20;99.90;;;;;;5000302;28;20560;-60
2022/01/28 06:13:11;;;;;;;11.93;6.90;;;2.30;99.90;;;;;;5003313;28;20187;-59
2022/01/28 06:15:41;;;;;;;12.60;7.17;;;2.30;99.90;;;;;;5002133;28;20199;-57
2022/01/28 06:18:11;;;;;;;9.60;6.30;;;2.30;99.90;;;;;;5004814;28;20443;-58
2022/01/28 06:20:37;;;;;;;8.23;6.13;;;2.30;99.90;;;;;;5008305;28;20491;-58
2022/01/28 06:23:03;;;;;;;13.87;7.90;;;2.30;99.90;;;;;;5001392;28;20416;-58
2022/01/28 06:25:29;;;;;;;13.00;7.57;;;2.30;99.90;;;;;;5004652;28;21264;-57
2022/01/28 06:27:55;;;;;;;13.40;7.20;;;2.30;99.90;;;;;;4999872;28;20451;-58
2022/01/28 06:30:22;;;;;;;9.43;6.37;;;2.30;99.90;;;;;;5001693;28;20435;-59
2022/01/28 06:32:49;;;;;;;11.90;6.97;;;2.30;99.90;;;;;;4997276;28;20212;-60
2022/01/28 06:35:14;;;;;;;11.90;7.33;;;2.30;99.90;;;;;;5004827;28;20459;-61
2022/01/28 06:37:42;;;;;;;12.80;7.80;;;2.30;99.90;;;;;;5002410;28;20548;-61
2022/01/28 06:40:09;;;;;;;15.57;7.77;;;2.30;99.90;;;;;;5004732;28;20177;-60
2022/01/28 06:42:35;;;;;;;14.43;7.13;;;2.30;99.90;;;;;;5002877;28;20427;-61
2022/01/28 06:45:01;;;;;;;14.60;6.60;;;2.30;99.90;;;;;;5005110;28;20497;-61
2022/01/28 06:47:27;;;;;;;9.00;5.70;;;2.30;99.90;;;;;;5007932;28;20735;-61
2022/01/28 06:49:53;;;;;;;10.70;6.30;;;2.20;99.90;;;;;;5004258;28;20442;-60
2022/01/28 06:52:18;;;;;;;10.43;6.33;;;2.20;99.90;;;;;;5004018;28;20189;-61
2022/01/28 06:54:44;;;;;;;12.33;6.90;;;2.20;99.90;;;;;;5003707;28;20779;-60
2022/01/28 06:57:10;;;;;;;9.67;6.20;;;2.20;99.90;;;;;;5005638;28;20578;-61
2022/01/28 06:59:35;;;;;;;12.57;6.23;;;2.30;99.90;;;;;;5002841;28;20646;-62
2022/01/28 07:02:01;;;;;;;9.77;5.70;;;2.20;99.90;;;;;;5004226;28;20180;-61
2022/01/28 07:04:27;;;;;;;11.23;5.57;;;2.20;99.90;;;;;;5004665;28;20184;-61
2022/01/28 07:06:52;;;;;;;9.97;6.00;;;2.20;99.90;;;;;;4998400;28;20222;-60
2022/01/28 07:09:18;;;;;;;11.10;6.33;;;2.20;99.90;;;;;;5003207;28;20182;-60
2022/01/28 07:11:44;;;;;;;9.50;5.90;;;2.20;99.90;;;;;;5003497;28;20181;-60
2022/01/28 07:14:09;;;;;;;11.57;6.20;;;2.20;99.90;;;;;;5007671;28;20549;-60
2022/01/28 07:16:36;;;;;;;10.57;5.90;;;2.20;99.90;;;;;;5002789;28;20199;-61
2022/01/28 07:19:03;;;;;;;7.03;4.47;;;2.20;99.90;;;;;;5001871;28;20436;-60
2022/01/28 07:21:28;;;;;;;8.00;5.30;;;2.20;99.90;;;;;;5006856;28;20434;-61
2022/01/28 07:23:54;;;;;;;11.03;5.50;;;2.20;99.90;;;;;;4999641;28;20439;-61
2022/01/28 07:26:20;;;;;;;9.17;5.50;;;2.20;99.90;;;;;;5000131;28;20180;-61
2022/01/28 07:28:47;;;;;;;14.80;5.80;;;2.20;99.90;;;;;;5004380;28;20521;-61
2022/01/28 07:31:15;;;;;;;10.80;5.20;;;2.20;99.90;;;;;;5006752;28;20596;-60
2022/01/28 07:33:41;;;;;;;7.83;5.23;;;2.20;99.90;;;;;;5000034;28;20431;-62
2022/01/28 07:36:07;;;;;;;10.43;5.40;;;2.20;99.90;;;;;;5002206;28;20715;-61
2022/01/28 07:38:33;;;;;;;9.33;4.77;;;2.20;99.90;;;;;;5003973;28;20966;-61
2022/01/28 07:40:59;;;;;;;9.13;4.53;;;2.10;99.90;;;;;;5005465;28;20428;-60
2022/01/28 07:43:25;;;;;;;5.80;4.00;;;2.10;99.90;;;;;;5001413;28;20237;-61
2022/01/28 07:45:51;;;;;;;8.80;4.60;;;2.20;99.90;;;;;;4998804;28;20427;-60
2022/01/28 07:48:17;;;;;;;8.43;4.93;;;2.10;99.90;;;;;;4998266;28;20458;-61
2022/01/28 07:50:42;;;;;;;8.60;5.30;;;2.20;99.90;;;;;;4995389;28;20185;-61
2022/01/28 07:53:10;;;;;;;6.43;4.90;;;2.10;99.90;;;;;;5002925;28;20185;-61
2022/01/28 07:55:36;;;;;;;9.27;5.33;;;2.20;99.90;;;;;;5004226;28;20203;-61
2022/01/28 07:58:02;;;;;;;7.13;5.13;;;2.20;99.90;;;;;;5004118;28;20473;-59
2022/01/28 08:00:28;;;;;;;8.63;5.60;;;2.10;99.90;;;;;;5000150;28;20656;-61
2022/01/28 08:02:54;;;;;;;8.07;5.57;;;2.10;99.90;;;;;;5000814;28;20500;-59
2022/01/28 08:05:20;;;;;;;8.80;5.00;;;2.10;99.90;;;;;;5002452;28;20419;-60
2022/01/28 08:07:46;;;;;;;8.00;5.10;;;2.10;99.90;;;;;;5001661;28;20228;-60
2022/01/28 08:10:16;;;;;;;8.17;4.90;;;2.10;99.90;;;;;;5003574;28;20177;-61
2022/01/28 08:12:50;;;;;;;8.43;4.80;;;2.20;99.90;;;;;;5005960;28;20453;-60
2022/01/28 08:15:16;;;;;;;7.67;4.87;;;2.30;99.90;;;;;;5008182;28;20470;-60
2022/01/28 08:17:42;;;;;;;9.43;5.83;;;2.30;99.90;;;;;;5005454;28;20543;-60
2022/01/28 08:20:09;;;;;;;8.80;4.60;;;2.20;99.90;;;;;;5005737;28;20439;-61
2022/01/28 08:22:47;;;;;;;9.70;5.57;;;2.20;99.90;;;;;;5005333;28;20432;-60
2022/01/28 08:25:14;;;;;;;9.63;5.33;;;2.20;99.90;;;;;;5005111;28;20458;-59
2022/01/28 08:27:44;;;;;;;14.07;5.93;;;2.20;99.90;;;;;;5002962;28;20520;-59
2022/01/28 08:30:14;;;;;;;8.70;5.00;;;2.30;99.90;;;;;;5004301;28;20426;-60
2022/01/28 08:32:40;;;;;;;8.27;5.43;;;2.30;99.90;;;;;;5000155;28;20443;-60
2022/01/28 08:35:07;;;;;;;9.00;4.90;;;2.40;99.90;;;;;;5004652;28;20970;-59
2022/01/28 08:37:33;;;;;;;8.13;5.37;;;2.40;99.90;;;;;;5018850;22;20638;-53
2022/01/28 08:39:59;;;;;;;9.97;5.10;;;2.50;99.90;;;;;;5002564;28;20451;-57
2022/01/28 08:42:26;;;;;;;11.00;5.50;;;2.50;99.90;;;;;;5004014;28;20208;-58
2022/01/28 08:44:52;;;;;;;11.23;5.60;;;2.50;99.90;;;;;;5009367;28;20951;-57
2022/01/28 08:47:17;;;;;;;8.07;5.27;;;2.50;99.90;;;;;;5003973;28;20476;-58
2022/01/28 08:49:43;;;;;;;12.13;5.50;;;2.60;99.90;;;;;;4977572;28;20264;-57
2022/01/28 08:52:09;;;;;;;8.80;5.23;;;2.60;99.90;;;;;;4982976;28;20263;-57
2022/01/28 08:54:34;;;;;;;8.33;5.30;;;2.60;99.90;;;;;;4980805;28;20299;-56
2022/01/28 08:57:00;;;;;;;8.93;5.43;;;2.60;99.90;;;;;;4986804;28;20213;-57
2022/01/28 08:59:25;;;;;;;8.50;5.57;;;2.60;99.90;;;;;;4977646;28;20244;-58
2022/01/28 09:01:51;;;;;;;7.70;5.50;;;2.60;99.90;;;;;;4978307;28;20185;-58
2022/01/28 09:04:17;;;;;;;12.50;5.13;;;2.70;99.90;;;;;;4983651;28;20173;-58
2022/01/28 09:06:42;;;;;;;6.00;4.67;;;2.70;99.90;;;;;;4987870;28;20208;-58
2022/01/28 09:09:08;;;;;;;7.00;4.43;;;2.70;99.90;;;;;;4975530;28;20416;-60
2022/01/28 09:11:47;;;;;;;7.83;5.57;;;2.80;99.90;;;;;;4975289;28;20258;-57
2022/01/28 09:14:14;;;;;;;8.60;4.87;;;2.80;99.90;;;;;;4973118;28;20193;-59
2022/01/28 09:16:41;;;;;;;9.17;5.00;;;2.80;99.90;;;;;;4972509;28;20909;-56
2022/01/28 09:19:07;;;;;;;7.40;5.40;;;2.90;99.90;;;;;;4982101;28;20473;-60
2022/01/28 09:21:33;;;;;;;8.53;5.23;;;2.90;99.90;;;;;;4998797;28;20467;-60
2022/01/28 09:23:59;;;;;;;11.63;5.27;;;2.90;99.90;;;;;;5003677;28;20181;-60
2022/01/28 09:26:24;;;;;;;7.40;5.17;;;2.90;99.90;;;;;;4993090;28;20694;-59
2022/01/28 09:28:50;;;;;;;9.47;5.10;;;2.90;99.90;;;;;;4982087;28;20193;-59
2022/01/28 09:31:16;;;;;;;9.07;5.50;;;3.00;99.90;;;;;;4996557;28;20186;-60
2022/01/28 09:33:41;;;;;;;7.00;5.20;;;3.00;99.90;;;;;;5000343;28;20207;-60
2022/01/28 09:36:07;;;;;;;7.70;5.10;;;3.00;99.90;;;;;;5004918;28;20218;-60
2022/01/28 09:38:34;;;;;;;12.67;5.43;;;3.10;99.90;;;;;;5006690;28;20217;-60
2022/01/28 09:41:05;;;;;;;8.47;5.40;;;3.00;99.90;;;;;;5001106;28;20444;-60
2022/01/28 09:43:31;;;;;;;8.90;5.17;;;3.00;99.90;;;;;;5005463;28;20539;-60
2022/01/28 09:45:57;;;;;;;8.40;5.20;;;3.10;99.90;;;;;;5010686;28;20452;-59
2022/01/28 09:48:23;;;;;;;11.80;5.27;;;3.10;99.90;;;;;;4978704;28;20471;-58
2022/01/28 09:50:50;;;;;;;11.20;4.57;;;3.10;99.90;;;;;;4978851;28;20458;-55
2022/01/28 09:53:18;;;;;;;8.83;5.53;;;3.10;99.90;;;;;;4975617;28;20436;-58
2022/01/28 09:55:45;;;;;;;9.03;5.53;;;3.10;99.90;;;;;;4979182;28;20500;-58
2022/01/28 09:58:11;;;;;;;10.53;5.70;;;3.20;99.90;;;;;;4973042;28;20456;-57
2022/01/28 10:00:37;;;;;;;10.17;5.43;;;3.20;99.90;;;;;;4979194;28;20432;-59
2022/01/28 10:03:05;;;;;;;10.67;5.80;;;3.30;99.90;;;;;;4984293;28;20463;-59
2022/01/28 10:05:40;;;;;;;8.57;4.90;;;3.50;99.90;;;;;;4983219;28;20447;-56
2022/01/28 10:08:09;;;;;;;10.57;5.67;;;3.70;99.90;;;;;;4979609;28;20470;-56
2022/01/28 10:10:49;;;;;;;10.63;4.97;;;3.90;99.90;;;;;;4981103;28;20536;-56
2022/01/28 10:13:27;;;;;;;6.30;4.50;;;4.00;99.90;;;;;;4983745;28;20438;-56
2022/01/28 10:15:59;;;;;;;8.57;5.23;;;3.90;99.90;;;;;;4997067;28;21098;-58
2022/01/28 10:18:52;;;;;;;8.30;4.90;;;3.80;99.90;;;;;;5003395;28;20699;-57
2022/01/28 10:21:33;;;;;;;6.23;4.53;;;3.70;99.90;;;;;;4990931;28;20460;-56
2022/01/28 10:24:15;;;;;;;7.93;4.80;;;3.70;99.90;;;;;;4981216;28;20433;-56
2022/01/28 10:26:55;;;;;;;7.63;4.80;;;3.60;99.90;;;;;;4983645;28;20443;-55
2022/01/28 10:29:32;;;;;;;8.83;4.80;;;3.60;99.90;;;;;;4979147;28;20427;-55
2022/01/28 10:32:07;;;;;;;12.53;4.40;;;3.50;99.90;;;;;;4978396;28;20426;-57
2022/01/28 10:34:37;;;;;;;9.57;5.03;;;3.50;99.90;;;;;;4979811;28;20516;-55
2022/01/28 10:37:23;;;;;;;12.60;5.10;;;3.40;99.90;;;;;;4978097;28;21052;-57
2022/01/28 10:39:50;;;;;;;8.17;4.80;;;3.40;99.90;;;;;;4993551;28;20440;-56
2022/01/28 10:42:33;;;;;;;8.67;4.90;;;3.30;99.90;;;;;;5002837;28;20444;-57
2022/01/28 10:45:09;;;;;;;7.33;4.50;;;3.30;99.90;;;;;;4997760;28;20477;-58
2022/01/28 10:47:42;;;;;;;8.47;4.57;;;3.30;99.90;;;;;;4998464;28;20456;-57
2022/01/28 10:50:33;;;;;;;10.80;4.33;;;3.30;99.90;;;;;;4987209;28;20428;-60
2022/01/28 10:53:03;;;;;;;9.00;5.03;;;3.30;99.90;;;;;;4982903;28;20450;-56
2022/01/28 10:55:31;;;;;;;7.63;5.00;;;3.40;99.90;;;;;;4976544;28;20908;-58
2022/01/28 10:58:00;;;;;;;7.00;3.93;;;3.60;99.90;;;;;;4977934;28;20495;-57
2022/01/28 11:00:31;;;;;;;10.90;5.30;;;3.80;99.90;;;;;;4975621;28;20440;-53
2022/01/28 11:02:59;;;;;;;9.37;4.80;;;3.90;99.90;;;;;;4982873;28;20464;-57
2022/01/28 11:05:27;;;;;;;9.00;4.47;;;4.20;99.90;;;;;;4984768;28;20440;-57
2022/01/28 11:07:53;;;;;;;5.43;4.50;;;4.50;98.90;;;;;;4991207;28;20463;-58
2022/01/28 11:10:19;;;;;;;10.10;4.17;;;4.70;97.60;;;;;;4995696;28;20440;-57
2022/01/28 11:12:45;;;;;;;6.90;4.47;;;4.80;94.40;;;;;;4991260;28;20455;-56
2022/01/28 11:15:12;;;;;;;6.40;4.40;;;4.80;92.90;;;;;;4981268;28;20209;-57
2022/01/28 11:17:38;;;;;;;7.00;4.53;;;4.70;92.30;;;;;;4981012;28;20460;-56
2022/01/28 11:20:06;;;;;;;11.03;5.30;;;4.60;92.70;;;;;;4978162;28;20439;-56
2022/01/28 11:22:43;;;;;;;6.70;4.00;;;4.50;93.10;;;;;;4978306;28;20567;-56
2022/01/28 11:25:35;;;;;;;6.07;4.20;;;4.40;94.00;;;;;;4977341;28;20518;-56
2022/01/28 11:28:05;;;;;;;6.20;4.17;;;4.30;92.10;;;;;;4977965;28;20495;-55
2022/01/28 11:30:31;;;;;;;8.97;4.50;;;4.20;93.00;;;;;;4982313;28;20436;-56
2022/01/28 11:33:01;;;;;;;5.10;3.33;;;4.20;94.10;;;;;;4986613;28;20441;-57
2022/01/28 11:35:37;;;;;;;6.73;3.70;;;4.10;94.70;;;;;;4981289;28;20293;-57
2022/01/28 11:38:25;;;;;;;8.37;4.07;;;4.10;93.50;;;;;;4978945;28;20515;-54
2022/01/28 11:40:56;;;;;;;6.13;3.53;;;4.10;93.90;;;;;;4978075;28;20523;-55
2022/01/28 11:43:25;;;;;;;6.10;3.47;;;4.10;94.40;;;;;;4978339;28;20436;-56
2022/01/28 11:46:09;;;;;;;6.93;3.80;;;4.10;94.90;;;;;;4982487;28;21040;-55
2022/01/28 11:48:58;;;;;;;4.50;3.30;;;4.20;95.20;;;;;;4973111;28;20467;-56
2022/01/28 11:51:32;;;;;;;4.73;3.10;;;4.70;91.80;;;;;;4974164;28;20472;-54
2022/01/28 11:54:02;;;;;;;5.40;3.20;;;5.20;87.20;;;;;;4971713;28;20472;-56
2022/01/28 11:56:29;;;;;;;4.57;3.17;;;5.60;81.00;;;;;;4975575;28;20482;-55
2022/01/28 11:59:09;;;;;;;6.30;3.50;;;6.00;76.10;;;;;;4976685;28;20471;-56
2022/01/28 12:01:40;;;;;;;5.70;2.97;;;6.00;70.30;;;;;;4976828;28;20472;-54
2022/01/28 12:04:36;;;;;;;4.40;2.90;;;5.80;68.90;;;;;;4976782;28;20448;-56
2022/01/28 12:07:09;;;;;;;4.47;2.80;;;5.40;64.30;;;;;;4979615;28;20436;-55
2022/01/28 12:09:37;;;;;;;5.33;3.00;;;5.10;65.00;;;;;;4977761;28;20441;-55
2022/01/28 12:12:08;;;;;;;8.80;3.30;;;4.90;65.60;;;;;;4979701;28;20791;-57
2022/01/28 12:14:53;;;;;;;9.70;3.87;;;4.80;66.40;;;;;;4975307;28;20500;-57
2022/01/28 12:17:32;;;;;;;5.43;2.60;;;5.40;63.40;;;;;;4976544;28;21003;-55
2022/01/28 12:20:10;;;;;;;9.10;3.80;;;6.00;60.50;;;;;;4974996;28;20523;-56
2022/01/28 12:22:35;;;;;;;9.50;5.03;;;6.10;58.70;;;;;;4974143;28;20460;-55
2022/01/28 12:25:01;;;;;;;9.43;5.60;;;6.00;59.20;;;;;;4974122;28;21115;-56
2022/01/28 12:27:33;;;;;;;5.63;3.57;;;6.10;60.10;;;;;;4977366;28;20197;-57
2022/01/28 12:30:00;;;;;;;8.53;4.90;;;6.30;59.30;;;;;;4969305;28;20452;-57
2022/01/28 12:32:26;;;;;;;5.07;2.50;;;6.20;59.60;;;;;;4975550;28;20432;-56
2022/01/28 12:34:53;;;;;;;2.70;2.40;;;6.10;58.50;;;;;;4966750;28;20428;-55
2022/01/28 12:37:22;;;;;;;6.23;2.80;;;5.90;58.10;;;;;;4971211;28;20193;-56
2022/01/28 12:40:02;;;;;;;3.73;2.40;;;5.80;57.10;;;;;;4961387;28;20451;-57
2022/01/28 12:42:32;;;;;;;3.70;2.60;;;5.70;57.30;;;;;;4969866;28;20522;-57
2022/01/28 12:44:59;;;;;;;7.97;2.23;;;5.60;57.50;;;;;;4982281;28;20761;-57
2022/01/28 12:47:31;;;;;;;3.97;2.27;;;5.60;58.10;;;;;;4969451;28;20479;-57
2022/01/28 12:50:04;;;;;;;3.43;2.33;;;5.50;58.10;;;;;;4976197;28;20493;-57
2022/01/28 12:52:34;;;;;;;4.23;2.90;;;5.50;57.80;;;;;;4972613;28;20445;-58
2022/01/28 12:55:00;;;;;;;4.27;2.63;;;5.40;61.90;;;;;;4966109;28;20643;-57
2022/01/28 12:57:26;;;;;;;5.57;2.80;;;5.50;61.50;;;;;;4970701;28;22640;-58
2022/01/28 12:59:52;;;;;;;5.57;2.83;;;5.50;59.90;;;;;;4974837;28;20528;-57
2022/01/28 13:02:18;;;;;;;4.93;2.67;;;5.50;60.90;;;;;;4975963;28;20203;-57
2022/01/28 13:09:54;;;;;;;2.83;2.30;;;5.20;59.80;;;;;;4978081;28;20511;-60
2022/01/28 13:12:22;;;;;;;3.63;2.50;;;5.10;59.50;;;;;;4977179;28;20444;-55
2022/01/28 13:14:47;;;;;;;5.80;2.40;;;4.90;57.60;;;;;;4977337;28;20436;-54
2022/01/28 13:17:22;;;;;;;4.67;2.73;;;4.80;58.10;;;;;;4977229;28;20459;-57
2022/01/28 13:20:03;;;;;;;4.13;2.80;;;4.70;58.50;;;;;;4984299;28;20187;-57
2022/01/28 13:22:31;;;;;;;6.43;2.33;;;4.60;59.00;;;;;;4985564;28;20508;-57
2022/01/28 13:24:58;;;;;;;5.97;2.60;;;4.60;58.20;;;;;;4991591;28;20473;-57
2022/01/28 13:27:45;;;;;;;6.17;2.67;;;4.70;59.00;;;;;;4985014;28;20537;-56
2022/01/28 13:30:14;;;;;;;8.30;2.00;;;4.70;58.20;;;;;;4978449;28;20517;-56
2022/01/28 13:32:46;;;;;;;5.93;2.17;;;4.70;56.20;;;;;;4980817;28;20424;-55
2022/01/28 13:35:14;;;;;;;13.47;2.80;;;4.60;56.50;;;;;;4982250;28;20495;-57
2022/01/28 13:37:40;;;;;;;2.60;2.20;;;4.60;57.70;;;;;;4985548;28;20478;-58
2022/01/28 13:40:18;;;;;;;2.07;1.87;;;4.50;57.10;;;;;;4981460;28;21071;-57
2022/01/28 13:43:09;;;;;;;5.70;2.80;;;4.50;57.40;;;;;;4986650;28;20474;-56
2022/01/28 13:45:37;;;;;;;2.83;2.23;;;4.40;57.50;;;;;;4979961;28;20429;-57
2022/01/28 13:48:35;;;;;;;2.97;2.40;;;4.40;57.80;;;;;;4983703;28;20467;-56
2022/01/28 13:51:06;;;;;;;4.43;2.30;;;4.40;58.20;;;;;;4977655;28;20432;-57
2022/01/28 13:54:15;;;;;;;3.53;2.23;;;4.60;58.20;;;;;;4978246;28;20455;-56
2022/01/28 13:56:46;;;;;;;3.63;2.60;;;5.00;58.20;;;;;;4984737;28;20456;-57
2022/01/28 13:59:20;;;;;;;4.73;3.07;;;5.60;56.60;;;;;;4983139;28;20440;-56
2022/01/28 14:01:47;;;;;;;4.20;2.10;;;5.80;54.90;;;;;;4984959;28;20523;-52
2022/01/28 14:04:25;;;;;;;2.67;2.10;;;5.70;54.30;;;;;;4977597;28;20452;-58
2022/01/28 14:07:08;;;;;;;1.90;1.80;;;6.00;54.80;;;;;;4985912;28;20430;-59
2022/01/28 14:09:46;;;;;;;2.87;1.70;;;6.20;52.60;;;;;;4979934;28;20455;-56
2022/01/28 14:12:45;;;;;;;2.77;1.90;;;6.10;52.30;;;;;;4983659;28;20423;-57
2022/01/28 14:15:16;;;;;;;4.87;2.00;;;6.10;52.10;;;;;;4978650;28;20444;-52
2022/01/28 14:17:42;;;;;;;5.63;2.13;;;5.90;51.80;;;;;;4981047;28;20449;-57
2022/01/28 14:20:09;;;;;;;2.57;2.00;;;5.70;51.90;;;;;;4975350;28;20479;-53
2022/01/28 14:22:35;;;;;;;5.50;2.40;;;5.50;52.40;;;;;;4981845;28;21239;-58
2022/01/28 14:25:01;;;;;;;3.70;2.30;;;5.30;53.20;;;;;;4983975;28;20461;-56
2022/01/28 14:29:55;;;;;;;3.90;2.40;;;5.00;54.40;;;;;;4978322;28;20755;-55
2022/01/28 14:32:23;;;;;;;5.00;2.40;;;5.00;54.80;;;;;;4984074;28;20204;-54
2022/01/28 14:34:53;;;;;;;2.90;2.27;;;5.00;55.50;;;;;;4981641;28;20424;-55
2022/01/28 14:37:19;;;;;;;3.87;2.60;;;4.90;55.60;;;;;;4976019;28;20460;-55
2022/01/28 14:39:46;;;;;;;2.60;1.87;;;4.90;56.00;;;;;;5012126;23;20585;-60